createdAt,value
2017-04-03T00:00:25.798Z,9.05
2017-04-03T00:01:48.028Z,8.95
2017-04-03T00:03:10.546Z,8.94
2017-04-03T00:04:32.720Z,8.8
2017-04-03T00:05:54.548Z,8.84
2017-04-03T00:07:16.812Z,8.83
2017-04-03T00:08:38.993Z,8.81
2017-04-03T00:10:00.595Z,8.73
2017-04-03T00:11:22.419Z,8.8
2017-04-03T00:12:44.247Z,8.84
2017-04-03T00:14:07.119Z,8.87
2017-04-03T00:15:28.628Z,8.98
2017-04-03T00:16:50.430Z,8.94
2017-04-03T00:18:12.977Z,8.92
2017-04-03T00:19:35.183Z,8.98
2017-04-03T00:20:57.646Z,9.05
2017-04-03T00:22:19.176Z,8.94
2017-04-03T00:23:41.317Z,8.95
2017-04-03T00:25:03.444Z,8.94
2017-04-03T00:26:25.305Z,8.99
2017-04-03T00:27:47.451Z,8.95
2017-04-03T00:29:08.959Z,8.79
2017-04-03T00:30:31.591Z,8.8
2017-04-03T00:31:53.073Z,8.73
2017-04-03T00:33:15.236Z,8.66
2017-04-03T00:34:37.064Z,8.68
2017-04-03T00:35:59.064Z,8.68
2017-04-03T00:37:21.197Z,8.66
2017-04-03T00:38:42.721Z,8.62
2017-04-03T00:40:04.569Z,8.63
2017-04-03T00:41:26.704Z,8.58
2017-04-03T00:42:48.718Z,8.44
2017-04-03T00:44:11.188Z,8.43
2017-04-03T00:45:33.020Z,8.44
2017-04-03T00:46:55.553Z,8.4
2017-04-03T00:48:18.026Z,8.38
2017-04-03T00:49:39.586Z,8.36
2017-04-03T00:51:01.138Z,8.3
2017-04-03T00:52:23.246Z,8.47
2017-04-03T00:53:45.056Z,8.33
2017-04-03T00:55:06.563Z,8.3
2017-04-03T00:56:28.374Z,8.12
2017-04-03T00:57:51.139Z,8.16
2017-04-03T00:59:13.016Z,8.02
2017-04-03T01:00:35.171Z,8.16
2017-04-03T01:01:57.634Z,8.18
2017-04-03T01:03:19.823Z,8.11
2017-04-03T01:04:41.687Z,8.18
2017-04-03T01:06:03.616Z,8.12
2017-04-03T01:07:25.783Z,8.2
2017-04-03T01:08:48.523Z,8.18
2017-04-03T01:10:10.763Z,8.02
2017-04-03T01:11:32.597Z,8.02
2017-04-03T01:12:55.135Z,7.8
2017-04-03T01:14:17.597Z,7.8
2017-04-03T01:15:39.125Z,7.77
2017-04-03T01:17:01.298Z,7.74
2017-04-03T01:18:22.805Z,7.8
2017-04-03T01:19:44.965Z,7.75
2017-04-03T01:21:07.097Z,7.75
2017-04-03T01:22:29.260Z,7.67
2017-04-03T01:23:51.095Z,7.68
2017-04-03T01:25:13.215Z,7.61
2017-04-03T01:26:35.369Z,7.63
2017-04-03T01:27:57.599Z,7.6
2017-04-03T01:29:19.096Z,7.55
2017-04-03T01:30:41.266Z,7.58
2017-04-03T01:32:03.105Z,7.6
2017-04-03T01:33:25.300Z,7.5
2017-04-03T01:34:47.152Z,7.55
2017-04-03T01:36:08.935Z,7.55
2017-04-03T01:37:30.218Z,7.52
2017-04-03T01:38:52.085Z,7.45
2017-04-03T01:40:13.597Z,7.42
2017-04-03T01:41:36.090Z,7.45
2017-04-03T01:42:57.914Z,7.48
2017-04-03T01:44:19.768Z,7.58
2017-04-03T01:45:41.932Z,7.55
2017-04-03T01:47:04.064Z,7.57
2017-04-03T01:48:26.182Z,7.57
2017-04-03T01:49:48.007Z,7.49
2017-04-03T01:51:09.515Z,7.49
2017-04-03T01:52:31.967Z,7.57
2017-04-03T01:53:53.139Z,7.55
2017-04-03T01:55:15.272Z,7.58
2017-04-03T01:56:37.125Z,7.68
2017-04-03T01:57:59.677Z,7.58
2017-04-03T01:59:21.826Z,7.52
2017-04-03T02:00:43.636Z,7.53
2017-04-03T02:02:05.516Z,7.58
2017-04-03T02:03:27.765Z,7.61
2017-04-03T02:04:49.906Z,7.71
2017-04-03T02:06:11.486Z,7.71
2017-04-03T02:07:33.361Z,7.69
2017-04-03T02:08:55.786Z,7.67
2017-04-03T02:10:17.924Z,7.6
2017-04-03T02:11:39.775Z,7.61
2017-04-03T02:13:01.596Z,7.57
2017-04-03T02:14:25.675Z,7.58
2017-04-03T02:15:47.274Z,7.63
2017-04-03T02:17:08.142Z,7.52
2017-04-03T02:18:29.956Z,7.6
2017-04-03T02:19:52.073Z,7.53
2017-04-03T02:21:14.251Z,7.61
2017-04-03T02:22:36.127Z,7.61
2017-04-03T02:23:58.318Z,7.55
2017-04-03T02:25:20.752Z,7.61
2017-04-03T02:26:42.241Z,7.67
2017-04-03T02:28:03.467Z,7.48
2017-04-03T02:29:25.603Z,7.55
2017-04-03T02:30:47.799Z,7.57
2017-04-03T02:32:09.674Z,7.63
2017-04-03T02:33:31.816Z,7.64
2017-04-03T02:34:53.682Z,7.61
2017-04-03T02:36:16.212Z,7.61
2017-04-03T02:37:38.091Z,7.69
2017-04-03T02:38:59.608Z,7.83
2017-04-03T02:40:21.106Z,7.72
2017-04-03T02:41:43.237Z,7.8
2017-04-03T02:43:05.220Z,7.87
2017-04-03T02:44:27.783Z,7.8
2017-04-03T02:45:49.598Z,7.77
2017-04-03T02:47:11.449Z,7.85
2017-04-03T02:48:33.255Z,7.89
2017-04-03T02:49:55.184Z,7.95
2017-04-03T02:51:17.143Z,7.83
2017-04-03T02:52:39.062Z,7.9
2017-04-03T02:54:00.895Z,7.95
2017-04-03T02:55:23.033Z,7.92
2017-04-03T02:56:44.595Z,8
2017-04-03T02:58:07.095Z,7.89
2017-04-03T02:59:28.618Z,8.01
2017-04-03T03:00:50.765Z,8.07
2017-04-03T03:02:12.293Z,8.1
2017-04-03T03:03:34.165Z,8.15
2017-04-03T03:04:55.654Z,8.02
2017-04-03T03:06:17.164Z,8.1
2017-04-03T03:07:39.327Z,8.12
2017-04-03T03:09:01.513Z,8.16
2017-04-03T03:10:23.011Z,8.18
2017-04-03T03:11:44.517Z,8.11
2017-04-03T03:13:06.344Z,8.18
2017-04-03T03:14:28.478Z,8.2
2017-04-03T03:15:50.024Z,8.2
2017-04-03T03:17:12.566Z,8.22
2017-04-03T03:18:34.395Z,8.18
2017-04-03T03:19:56.602Z,8.12
2017-04-03T03:21:18.416Z,8.16
2017-04-03T03:22:40.306Z,8.16
2017-04-03T03:24:02.475Z,8.22
2017-04-03T03:25:24.345Z,8.3
2017-04-03T03:26:46.203Z,8.25
2017-04-03T03:28:07.703Z,8.25
2017-04-03T03:29:28.895Z,8.33
2017-04-03T03:30:51.033Z,8.2
2017-04-03T03:32:12.882Z,8.33
2017-04-03T03:33:34.395Z,8.33
2017-04-03T03:34:56.227Z,8.33
2017-04-03T03:36:18.406Z,8.34
2017-04-03T03:37:40.536Z,8.23
2017-04-03T03:39:02.356Z,8.19
2017-04-03T03:40:24.783Z,8.16
2017-04-03T03:41:46.975Z,8.19
2017-04-03T03:43:08.795Z,8.4
2017-04-03T03:44:30.912Z,8.4
2017-04-03T03:45:53.390Z,8.3
2017-04-03T03:47:15.194Z,8.47
2017-04-03T03:48:36.706Z,8.37
2017-04-03T03:49:59.192Z,8.36
2017-04-03T03:51:20.432Z,8.36
2017-04-03T03:52:42.560Z,8.41
2017-04-03T03:54:04.725Z,8.37
2017-04-03T03:55:26.230Z,8.38
2017-04-03T03:56:48.345Z,8.44
2017-04-03T03:58:10.155Z,8.45
2017-04-03T03:59:31.676Z,8.44
2017-04-03T04:00:53.485Z,8.44
2017-04-03T04:02:14.983Z,8.48
2017-04-03T04:03:37.187Z,8.59
2017-04-03T04:04:59.320Z,8.47
2017-04-03T04:06:21.275Z,8.47
2017-04-03T04:07:43.120Z,8.55
2017-04-03T04:09:05.892Z,8.44
2017-04-03T04:10:27.516Z,8.44
2017-04-03T04:11:49.434Z,8.48
2017-04-03T04:13:11.264Z,8.44
2017-04-03T04:14:33.394Z,8.5
2017-04-03T04:15:54.908Z,8.47
2017-04-03T04:17:16.424Z,8.48
2017-04-03T04:18:38.272Z,8.5
2017-04-03T04:20:00.705Z,8.59
2017-04-03T04:21:21.967Z,8.52
2017-04-03T04:22:43.918Z,8.48
2017-04-03T04:24:06.067Z,8.47
2017-04-03T04:25:28.483Z,8.52
2017-04-03T04:26:50.975Z,8.5
2017-04-03T04:28:12.801Z,8.55
2017-04-03T04:29:34.614Z,8.48
2017-04-03T04:30:57.236Z,8.47
2017-04-03T04:32:19.697Z,8.45
2017-04-03T04:33:41.622Z,8.47
2017-04-03T04:35:03.451Z,8.56
2017-04-03T04:36:24.987Z,8.55
2017-04-03T04:37:46.496Z,8.53
2017-04-03T04:39:08.022Z,8.55
2017-04-03T04:40:30.188Z,8.58
2017-04-03T04:41:52.330Z,8.61
2017-04-03T04:43:13.585Z,8.58
2017-04-03T04:44:35.413Z,8.55
2017-04-03T04:45:57.260Z,8.63
2017-04-03T04:47:19.519Z,8.66
2017-04-03T04:48:41.965Z,8.7
2017-04-03T04:50:03.175Z,8.65
2017-04-03T04:51:25.296Z,8.56
2017-04-03T04:52:48.068Z,8.68
2017-04-03T04:54:10.204Z,8.73
2017-04-03T04:55:32.052Z,8.73
2017-04-03T04:56:53.906Z,8.74
2017-04-03T04:58:16.196Z,8.73
2017-04-03T04:59:38.438Z,8.77
2017-04-03T05:01:00.583Z,8.73
2017-04-03T05:02:22.487Z,8.74
2017-04-03T05:03:45.302Z,8.77
2017-04-03T05:05:07.128Z,8.81
2017-04-03T05:06:29.287Z,8.84
2017-04-03T05:07:51.496Z,8.79
2017-04-03T05:09:14.089Z,8.81
2017-04-03T05:10:36.236Z,8.8
2017-04-03T05:11:58.056Z,8.8
2017-04-03T05:13:20.307Z,8.68
2017-04-03T05:14:42.465Z,8.66
2017-04-03T05:16:05.038Z,8.65
2017-04-03T05:17:26.966Z,8.66
2017-04-03T05:18:48.466Z,8.62
2017-04-03T05:20:10.597Z,8.74
2017-04-03T05:21:32.759Z,8.8
2017-04-03T05:22:54.913Z,8.73
2017-04-03T05:24:17.376Z,8.76
2017-04-03T05:25:39.554Z,8.89
2017-04-03T05:27:01.812Z,8.95
2017-04-03T05:28:24.386Z,8.94
2017-04-03T05:29:46.217Z,8.87
2017-04-03T05:31:08.026Z,9.1
2017-04-03T05:32:29.218Z,8.99
2017-04-03T05:33:51.398Z,9.11
2017-04-03T05:35:13.636Z,9.11
2017-04-03T05:36:35.876Z,9.05
2017-04-03T05:37:57.537Z,9.08
2017-04-03T05:39:19.736Z,9.14
2017-04-03T05:40:42.304Z,9.14
2017-04-03T05:42:04.738Z,9.15
2017-04-03T05:43:26.906Z,9.24
2017-04-03T05:44:48.735Z,9.24
2017-04-03T05:46:10.937Z,9.28
2017-04-03T05:47:33.175Z,9.29
2017-04-03T05:48:55.001Z,9.23
2017-04-03T05:50:17.457Z,9.31
2017-04-03T05:51:38.337Z,9.33
2017-04-03T05:53:00.824Z,9.39
2017-04-03T05:54:23.315Z,9.39
2017-04-03T05:55:44.827Z,9.5
2017-04-03T05:57:06.652Z,9.56
2017-04-03T05:58:29.386Z,9.6
2017-04-03T05:59:51.522Z,9.61
2017-04-03T06:01:13.483Z,9.58
2017-04-03T06:02:36.145Z,9.68
2017-04-03T06:03:58.319Z,9.69
2017-04-03T06:05:20.759Z,9.64
2017-04-03T06:06:42.910Z,9.69
2017-04-03T06:08:04.510Z,9.66
2017-04-03T06:09:26.944Z,9.75
2017-04-03T06:10:49.095Z,9.84
2017-04-03T06:12:10.596Z,9.87
2017-04-03T06:13:33.066Z,9.81
2017-04-03T06:14:54.928Z,9.79
2017-04-03T06:16:17.417Z,9.81
2017-04-03T06:17:38.944Z,9.89
2017-04-03T06:19:00.439Z,9.94
2017-04-03T06:20:22.885Z,9.96
2017-04-03T06:21:45.028Z,10.09
2017-04-03T06:23:07.200Z,9.86
2017-04-03T06:24:29.007Z,9.86
2017-04-03T06:25:51.145Z,9.78
2017-04-03T06:27:12.958Z,9.89
2017-04-03T06:28:35.436Z,9.76
2017-04-03T06:29:57.606Z,9.69
2017-04-03T06:31:19.717Z,9.81
2017-04-03T06:32:41.227Z,9.91
2017-04-03T06:34:03.047Z,9.99
2017-04-03T06:35:24.966Z,10.18
2017-04-03T06:36:46.735Z,10.22
2017-04-03T06:38:08.666Z,10.42
2017-04-03T06:39:30.892Z,10.18
2017-04-03T06:40:52.717Z,10.17
2017-04-03T06:42:15.206Z,9.99
2017-04-03T06:43:37.097Z,10.15
2017-04-03T06:44:59.627Z,10.36
2017-04-03T06:46:21.521Z,10.42
2017-04-03T06:47:43.346Z,10.51
2017-04-03T06:49:05.506Z,10.44
2017-04-03T06:50:27.672Z,10.53
2017-04-03T06:51:49.497Z,10.71
2017-04-03T06:53:11.565Z,10.6
2017-04-03T06:54:33.877Z,10.63
2017-04-03T06:55:56.044Z,10.64
2017-04-03T06:57:17.897Z,10.71
2017-04-03T06:58:40.076Z,10.71
2017-04-03T07:00:02.016Z,10.53
2017-04-03T07:01:24.164Z,10.61
2017-04-03T07:02:45.665Z,10.74
2017-04-03T07:04:07.849Z,10.76
2017-04-03T07:05:29.691Z,10.71
2017-04-03T07:06:52.150Z,10.71
2017-04-03T07:08:13.974Z,10.82
2017-04-03T07:09:35.967Z,10.61
2017-04-03T07:10:57.806Z,10.81
2017-04-03T07:12:19.655Z,10.99
2017-04-03T07:13:41.494Z,10.59
2017-04-03T07:15:03.664Z,10.51
2017-04-03T07:16:25.851Z,10.48
2017-04-03T07:17:47.372Z,10.27
2017-04-03T07:19:09.339Z,10.36
2017-04-03T07:20:32.120Z,10.41
2017-04-03T07:21:54.258Z,10.41
2017-04-03T07:23:16.744Z,10.56
2017-04-03T07:24:38.884Z,10.67
2017-04-03T07:26:01.034Z,10.89
2017-04-03T07:27:23.165Z,10.94
2017-04-03T07:28:45.397Z,11.02
2017-04-03T07:30:07.683Z,11.29
2017-04-03T07:31:30.504Z,11.36
2017-04-03T07:32:52.435Z,11.17
2017-04-03T07:34:13.935Z,11.24
2017-04-03T07:35:36.435Z,10.81
2017-04-03T07:36:58.272Z,10.68
2017-04-03T07:38:20.096Z,10.78
2017-04-03T07:39:42.374Z,10.6
2017-04-03T07:41:04.181Z,10.81
2017-04-03T07:42:26.762Z,10.86
2017-04-03T07:43:48.613Z,10.78
2017-04-03T07:45:10.446Z,10.86
2017-04-03T07:46:32.920Z,10.94
2017-04-03T07:47:55.105Z,10.94
2017-04-03T07:49:17.584Z,10.74
2017-04-03T07:50:39.408Z,10.88
2017-04-03T07:52:00.942Z,10.81
2017-04-03T07:53:23.748Z,10.79
2017-04-03T07:54:46.228Z,10.81
2017-04-03T07:56:08.061Z,10.82
2017-04-03T07:57:29.576Z,11.06
2017-04-03T07:58:51.746Z,11.43
2017-04-03T08:00:13.597Z,11.37
2017-04-03T08:01:35.797Z,11.19
2017-04-03T08:02:57.951Z,11.06
2017-04-03T08:04:20.742Z,10.96
2017-04-03T08:05:42.555Z,11.35
2017-04-03T08:07:04.689Z,11.65
2017-04-03T08:08:27.128Z,12.07
2017-04-03T08:09:49.852Z,12.62
2017-04-03T08:11:11.688Z,13.22
2017-04-03T08:12:33.537Z,13.6
2017-04-03T08:13:55.418Z,13.89
2017-04-03T08:15:17.228Z,14.15
2017-04-03T08:16:39.357Z,14.18
2017-04-03T08:18:01.208Z,14.22
2017-04-03T08:19:22.403Z,14.61
2017-04-03T08:20:46.055Z,14.81
2017-04-03T08:22:07.903Z,15.25
2017-04-03T08:23:30.048Z,15.35
2017-04-03T08:24:52.233Z,15.14
2017-04-03T08:26:14.844Z,15.35
2017-04-03T08:27:36.989Z,14.99
2017-04-03T08:28:59.515Z,14.37
2017-04-03T08:30:21.687Z,13.89
2017-04-03T08:31:44.197Z,13.88
2017-04-03T08:33:06.366Z,13.7
2017-04-03T08:34:28.259Z,13.54
2017-04-03T08:35:50.537Z,14.02
2017-04-03T08:37:12.146Z,14.35
2017-04-03T08:38:33.755Z,14.09
2017-04-03T08:39:56.323Z,13.85
2017-04-03T08:41:18.261Z,13.78
2017-04-03T08:42:40.076Z,13.87
2017-04-03T08:44:02.238Z,13.48
2017-04-03T08:45:24.387Z,13.55
2017-04-03T08:46:46.945Z,13.75
2017-04-03T08:48:08.749Z,13.63
2017-04-03T08:49:30.895Z,13.81
2017-04-03T08:50:53.354Z,13.82
2017-04-03T08:52:15.907Z,13.73
2017-04-03T08:53:38.698Z,13.42
2017-04-03T08:55:00.863Z,13.51
2017-04-03T08:56:23.321Z,13.54
2017-04-03T08:57:45.525Z,13.39
2017-04-03T08:59:08.044Z,13.79
2017-04-03T09:00:29.357Z,14.06
2017-04-03T09:01:51.834Z,13.75
2017-04-03T09:03:13.992Z,13.59
2017-04-03T09:04:36.537Z,13.57
2017-04-03T09:05:58.695Z,14.12
2017-04-03T09:07:20.565Z,14.55
2017-04-03T09:08:41.768Z,14.7
2017-04-03T09:10:03.635Z,14.22
2017-04-03T09:11:25.901Z,13.45
2017-04-03T09:12:47.246Z,13.38
2017-04-03T09:14:09.079Z,13.2
2017-04-03T09:15:31.306Z,12.86
2017-04-03T09:16:52.809Z,13.12
2017-04-03T09:18:14.615Z,13.75
2017-04-03T09:19:36.447Z,14.14
2017-04-03T09:20:58.593Z,14.1
2017-04-03T09:22:20.117Z,14.62
2017-04-03T09:23:41.631Z,14.86
2017-04-03T09:25:03.458Z,14.95
2017-04-03T09:26:25.664Z,15.14
2017-04-03T09:27:46.993Z,15.36
2017-04-03T09:29:08.218Z,15.53
2017-04-03T09:30:30.358Z,15.72
2017-04-03T09:31:52.501Z,16.02
2017-04-03T09:33:14.404Z,16.02
2017-04-03T09:34:36.863Z,15.56
2017-04-03T09:35:58.387Z,14.69
2017-04-03T09:37:20.866Z,14.28
2017-04-03T09:38:42.719Z,14.55
2017-04-03T09:40:04.543Z,14.45
2017-04-03T09:41:26.435Z,14.43
2017-04-03T09:42:48.625Z,14.8
2017-04-03T09:44:10.783Z,14.92
2017-04-03T09:45:32.320Z,13.96
2017-04-03T09:46:54.142Z,13.95
2017-04-03T09:48:16.925Z,13.97
2017-04-03T09:49:39.058Z,14
2017-04-03T09:51:01.631Z,14.02
2017-04-03T09:52:22.516Z,14.35
2017-04-03T09:53:44.027Z,14.27
2017-04-03T09:55:05.519Z,14.57
2017-04-03T09:56:27.397Z,14.54
2017-04-03T09:57:49.245Z,14.7
2017-04-03T09:59:12.065Z,14.8
2017-04-03T10:00:33.288Z,15.28
2017-04-03T10:01:55.186Z,15.51
2017-04-03T10:03:17.327Z,15.34
2017-04-03T10:04:39.465Z,15.34
2017-04-03T10:06:01.029Z,15.6
2017-04-03T10:07:22.875Z,15.46
2017-04-03T10:08:44.443Z,15.47
2017-04-03T10:10:06.324Z,15.51
2017-04-03T10:11:27.968Z,15.56
2017-04-03T10:12:50.255Z,15.54
2017-04-03T10:14:11.777Z,15.35
2017-04-03T10:15:34.764Z,15.29
2017-04-03T10:16:56.951Z,14.98
2017-04-03T10:18:18.243Z,14.39
2017-04-03T10:19:39.812Z,14.4
2017-04-03T10:21:02.165Z,14.68
2017-04-03T10:22:24.653Z,15.09
2017-04-03T10:23:46.211Z,15.49
2017-04-03T10:25:08.064Z,15.65
2017-04-03T10:26:30.155Z,15.82
2017-04-03T10:27:52.001Z,16.09
2017-04-03T10:29:13.906Z,16.3
2017-04-03T10:30:36.083Z,16.3
2017-04-03T10:31:57.895Z,15.53
2017-04-03T10:33:20.053Z,15.01
2017-04-03T10:34:42.309Z,14.62
2017-04-03T10:36:03.973Z,14.68
2017-04-03T10:37:26.215Z,14.47
2017-04-03T10:38:48.485Z,14.12
2017-04-03T10:40:10.646Z,14.1
2017-04-03T10:41:32.586Z,14.58
2017-04-03T10:42:54.674Z,15.09
2017-04-03T10:44:16.526Z,15.51
2017-04-03T10:45:38.054Z,15.71
2017-04-03T10:46:59.987Z,16.09
2017-04-03T10:48:22.171Z,15.86
2017-04-03T10:49:44.035Z,16.04
2017-04-03T10:51:05.876Z,15.29
2017-04-03T10:52:28.068Z,14.65
2017-04-03T10:53:50.624Z,14.72
2017-04-03T10:55:12.485Z,15.29
2017-04-03T10:56:34.645Z,15.13
2017-04-03T10:57:56.535Z,15.44
2017-04-03T10:59:18.691Z,15.92
2017-04-03T11:00:40.556Z,16.39
2017-04-03T11:02:03.051Z,16.68
2017-04-03T11:03:24.581Z,16.79
2017-04-03T11:04:46.734Z,16.97
2017-04-03T11:06:08.915Z,17.18
2017-04-03T11:07:30.468Z,17.28
2017-04-03T11:08:52.673Z,17.33
2017-04-03T11:10:15.164Z,17.21
2017-04-03T11:11:37.015Z,17.01
2017-04-03T11:12:59.272Z,16.94
2017-04-03T11:14:21.125Z,16.78
2017-04-03T11:15:42.955Z,16.7
2017-04-03T11:17:04.556Z,16.63
2017-04-03T11:18:27.034Z,16.67
2017-04-03T11:19:48.597Z,16.56
2017-04-03T11:21:11.415Z,16.25
2017-04-03T11:22:33.722Z,15.53
2017-04-03T11:23:55.563Z,15.14
2017-04-03T11:25:17.421Z,15.34
2017-04-03T11:26:39.373Z,14.95
2017-04-03T11:28:01.282Z,14.36
2017-04-03T11:29:23.776Z,14.62
2017-04-03T11:30:45.141Z,14.8
2017-04-03T11:32:07.674Z,14.45
2017-04-03T11:33:29.837Z,13.95
2017-04-03T11:34:52.072Z,13.73
2017-04-03T11:36:13.927Z,13.48
2017-04-03T11:37:36.708Z,13.57
2017-04-03T11:38:59.166Z,13.45
2017-04-03T11:40:21.467Z,13.54
2017-04-03T11:41:43.621Z,13.38
2017-04-03T11:43:05.745Z,13.32
2017-04-03T11:44:27.651Z,13.6
2017-04-03T11:45:49.593Z,13.97
2017-04-03T11:47:11.245Z,14.28
2017-04-03T11:48:33.395Z,14.57
2017-04-03T11:49:54.925Z,14.89
2017-04-03T11:51:17.076Z,14.98
2017-04-03T11:52:39.244Z,14.92
2017-04-03T11:54:01.375Z,14.98
2017-04-03T11:55:23.339Z,14.62
2017-04-03T11:56:45.507Z,14.6
2017-04-03T11:58:07.772Z,14.77
2017-04-03T11:59:29.950Z,14.65
2017-04-03T12:00:50.844Z,14.78
2017-04-03T12:02:12.356Z,14.92
2017-04-03T12:03:34.906Z,14.64
2017-04-03T12:04:57.395Z,14.55
2017-04-03T12:06:19.543Z,14.21
2017-04-03T12:07:42.054Z,14.1
2017-04-03T12:09:04.223Z,14.09
2017-04-03T12:10:26.218Z,14.32
2017-04-03T12:11:48.384Z,14.36
2017-04-03T12:13:10.566Z,14.4
2017-04-03T12:14:32.732Z,14.21
2017-04-03T12:15:55.526Z,13.97
2017-04-03T12:17:17.391Z,14.12
2017-04-03T12:18:39.603Z,14.07
2017-04-03T12:20:01.792Z,13.97
2017-04-03T12:21:24.571Z,14.18
2017-04-03T12:22:46.723Z,14.35
2017-04-03T12:24:09.210Z,14.32
2017-04-03T12:25:31.469Z,14.51
2017-04-03T12:26:54.245Z,14.7
2017-04-03T12:28:16.788Z,14.94
2017-04-03T12:29:39.057Z,14.99
2017-04-03T12:31:01.532Z,15.09
2017-04-03T12:32:24.422Z,14.88
2017-04-03T12:33:46.665Z,15.02
2017-04-03T12:35:08.852Z,14.94
2017-04-03T12:36:30.715Z,14.99
2017-04-03T12:37:52.945Z,14.89
2017-04-03T12:39:14.802Z,14.84
2017-04-03T12:40:36.632Z,14.55
2017-04-03T12:41:59.152Z,14.54
2017-04-03T12:43:22.067Z,14.4
2017-04-03T12:44:44.253Z,14.29
2017-04-03T12:46:06.091Z,14.37
2017-04-03T12:47:28.023Z,14.24
2017-04-03T12:48:49.884Z,14.24
2017-04-03T12:50:11.485Z,14.46
2017-04-03T12:51:33.336Z,14.65
2017-04-03T12:52:55.900Z,14.91
2017-04-03T12:54:17.933Z,14.91
2017-04-03T12:55:40.435Z,14.89
2017-04-03T12:57:02.353Z,14.98
2017-04-03T12:58:24.685Z,15.09
2017-04-03T12:59:46.893Z,15.29
2017-04-03T13:01:09.154Z,15.19
2017-04-03T13:02:31.005Z,15.01
2017-04-03T13:03:53.151Z,15.01
2017-04-03T13:05:15.643Z,15.13
2017-04-03T13:06:37.809Z,14.91
2017-04-03T13:07:59.745Z,14.86
2017-04-03T13:09:21.605Z,14.88
2017-04-03T13:10:45.004Z,14.64
2017-04-03T13:12:06.911Z,14.72
2017-04-03T13:13:29.484Z,14.78
2017-04-03T13:14:51.036Z,14.83
2017-04-03T13:16:12.963Z,14.72
2017-04-03T13:17:34.882Z,14.88
2017-04-03T13:18:56.417Z,14.86
2017-04-03T13:20:18.361Z,14.77
2017-04-03T13:21:40.616Z,14.86
2017-04-03T13:23:02.236Z,15.03
2017-04-03T13:24:24.094Z,15.03
2017-04-03T13:25:46.269Z,15.14
2017-04-03T13:27:09.096Z,15.17
2017-04-03T13:28:30.621Z,15.31
2017-04-03T13:29:52.488Z,15.43
2017-04-03T13:31:13.990Z,15.51
2017-04-03T13:32:36.502Z,15.54
2017-04-03T13:33:58.031Z,15.57
2017-04-03T13:35:19.563Z,15.74
2017-04-03T13:36:40.763Z,15.29
2017-04-03T13:38:03.261Z,15.41
2017-04-03T13:39:24.873Z,15.03
2017-04-03T13:40:46.791Z,15.2
2017-04-03T13:42:09.048Z,15.07
2017-04-03T13:43:31.510Z,15.06
2017-04-03T13:44:53.355Z,15.1
2017-04-03T13:46:15.523Z,15.01
2017-04-03T13:47:37.359Z,15.03
2017-04-03T13:48:59.825Z,15.2
2017-04-03T13:50:21.677Z,15.27
2017-04-03T13:51:43.541Z,15.43
2017-04-03T13:53:05.713Z,15.57
2017-04-03T13:54:27.212Z,15.65
2017-04-03T13:55:49.766Z,15.68
2017-04-03T13:57:11.611Z,15.13
2017-04-03T13:58:33.466Z,15.16
2017-04-03T13:59:56.082Z,15.27
2017-04-03T14:01:18.021Z,15.31
2017-04-03T14:02:39.553Z,15.36
2017-04-03T14:04:01.730Z,15.54
2017-04-03T14:05:23.906Z,15.54
2017-04-03T14:06:46.093Z,15.68
2017-04-03T14:08:07.940Z,15.64
2017-04-03T14:09:29.778Z,15.74
2017-04-03T14:10:52.232Z,15.8
2017-04-03T14:12:14.714Z,15.9
2017-04-03T14:13:36.721Z,16.08
2017-04-03T14:14:58.889Z,16.28
2017-04-03T14:16:21.203Z,16.48
2017-04-03T14:17:43.680Z,16.23
2017-04-03T14:19:05.838Z,15.87
2017-04-03T14:20:28.304Z,15.69
2017-04-03T14:21:51.101Z,15.65
2017-04-03T14:23:13.272Z,15.59
2017-04-03T14:24:35.746Z,15.68
2017-04-03T14:25:57.960Z,15.34
2017-04-03T14:27:20.205Z,15.2
2017-04-03T14:28:42.400Z,15.09
2017-04-03T14:30:03.924Z,14.84
2017-04-03T14:31:25.813Z,14.68
2017-04-03T14:32:49.551Z,14.64
2017-04-03T14:34:12.045Z,14.72
2017-04-03T14:35:34.612Z,14.69
2017-04-03T14:36:56.835Z,14.37
2017-04-03T14:38:19.313Z,14.33
2017-04-03T14:39:41.172Z,14.32
2017-04-03T14:41:03.324Z,14.28
2017-04-03T14:42:25.823Z,14.24
2017-04-03T14:43:48.281Z,14.29
2017-04-03T14:45:10.142Z,14.42
2017-04-03T14:46:32.288Z,14.5
2017-04-03T14:47:54.532Z,14.68
2017-04-03T14:49:17.352Z,14.83
2017-04-03T14:50:39.529Z,14.86
2017-04-03T14:52:01.051Z,14.99
2017-04-03T14:53:23.212Z,14.99
2017-04-03T14:54:45.662Z,15.2
2017-04-03T14:56:08.147Z,15.39
2017-04-03T14:57:30.309Z,15.56
2017-04-03T14:58:52.274Z,15.5
2017-04-03T15:00:15.170Z,15.78
2017-04-03T15:01:36.701Z,16.23
2017-04-03T15:02:58.959Z,16.02
2017-04-03T15:04:20.801Z,15.75
2017-04-03T15:05:42.642Z,15.86
2017-04-03T15:07:04.814Z,16
2017-04-03T15:08:26.653Z,16.14
2017-04-03T15:09:49.182Z,15.97
2017-04-03T15:11:11.861Z,15.83
2017-04-03T15:12:34.049Z,15.69
2017-04-03T15:13:55.923Z,15.71
2017-04-03T15:15:17.909Z,15.64
2017-04-03T15:16:40.703Z,15.62
2017-04-03T15:18:03.212Z,15.62
2017-04-03T15:19:25.382Z,15.68
2017-04-03T15:20:47.598Z,15.53
2017-04-03T15:22:10.054Z,15.51
2017-04-03T15:23:32.634Z,15.39
2017-04-03T15:24:55.122Z,15.39
2017-04-03T15:26:17.283Z,15.47
2017-04-03T15:27:39.437Z,15.17
2017-04-03T15:29:01.328Z,15.21
2017-04-03T15:30:23.519Z,15.21
2017-04-03T15:31:45.693Z,15.31
2017-04-03T15:33:07.917Z,15.29
2017-04-03T15:34:29.882Z,15.2
2017-04-03T15:35:52.687Z,15.1
2017-04-03T15:37:14.320Z,15.06
2017-04-03T15:38:36.893Z,14.77
2017-04-03T15:39:58.805Z,14.7
2017-04-03T15:41:21.022Z,14.83
2017-04-03T15:42:43.204Z,14.72
2017-04-03T15:44:06.022Z,14.64
2017-04-03T15:45:28.500Z,14.7
2017-04-03T15:46:50.722Z,14.55
2017-04-03T15:48:12.900Z,14.65
2017-04-03T15:49:35.380Z,14.54
2017-04-03T15:50:57.558Z,14.55
2017-04-03T15:52:19.764Z,14.58
2017-04-03T15:53:41.726Z,14.65
2017-04-03T15:55:04.253Z,14.7
2017-04-03T15:56:26.474Z,14.78
2017-04-03T15:57:47.687Z,14.78
2017-04-03T15:59:09.838Z,14.57
2017-04-03T16:00:31.723Z,14.58
2017-04-03T16:01:53.272Z,14.55
2017-04-03T16:03:15.761Z,14.6
2017-04-03T16:04:37.934Z,14.69
2017-04-03T16:05:59.814Z,14.65
2017-04-03T16:07:22.394Z,14.68
2017-04-03T16:08:45.014Z,14.65
2017-04-03T16:10:07.503Z,14.69
2017-04-03T16:11:30.325Z,14.69
2017-04-03T16:12:52.203Z,14.62
2017-04-03T16:14:14.781Z,14.47
2017-04-03T16:15:36.986Z,14.43
2017-04-03T16:16:59.184Z,14.36
2017-04-03T16:18:20.714Z,14.37
2017-04-03T16:19:42.919Z,14.33
2017-04-03T16:21:04.746Z,14.2
2017-04-03T16:22:27.588Z,14.04
2017-04-03T16:23:49.757Z,13.92
2017-04-03T16:25:11.896Z,13.89
2017-04-03T16:26:34.025Z,13.77
2017-04-03T16:27:56.938Z,13.77
2017-04-03T16:29:19.116Z,13.73
2017-04-03T16:30:41.280Z,13.7
2017-04-03T16:32:03.814Z,13.66
2017-04-03T16:33:26.281Z,13.81
2017-04-03T16:34:48.505Z,13.64
2017-04-03T16:36:10.420Z,13.73
2017-04-03T16:37:32.958Z,13.7
2017-04-03T16:38:55.236Z,13.73
2017-04-03T16:40:16.756Z,13.64
2017-04-03T16:41:38.924Z,13.71
2017-04-03T16:43:01.409Z,13.71
2017-04-03T16:44:23.879Z,13.66
2017-04-03T16:45:45.550Z,13.63
2017-04-03T16:47:07.722Z,13.63
2017-04-03T16:48:29.535Z,13.55
2017-04-03T16:49:52.273Z,13.57
2017-04-03T16:51:14.485Z,13.48
2017-04-03T16:52:36.336Z,13.51
2017-04-03T16:53:58.488Z,13.46
2017-04-03T16:55:21.063Z,13.54
2017-04-03T16:56:42.912Z,13.49
2017-04-03T16:58:04.752Z,13.45
2017-04-03T16:59:27.317Z,13.44
2017-04-03T17:00:50.259Z,13.45
2017-04-03T17:02:12.794Z,13.32
2017-04-03T17:03:35.276Z,13.22
2017-04-03T17:04:57.445Z,13.32
2017-04-03T17:06:20.280Z,13.2
2017-04-03T17:07:42.147Z,13.26
2017-04-03T17:09:04.650Z,13.11
2017-04-03T17:10:27.161Z,13.22
2017-04-03T17:11:49.948Z,13.25
2017-04-03T17:13:11.798Z,13.17
2017-04-03T17:14:34.038Z,13.15
2017-04-03T17:15:56.562Z,13.14
2017-04-03T17:17:19.329Z,13.07
2017-04-03T17:18:41.816Z,13.12
2017-04-03T17:20:04.062Z,12.95
2017-04-03T17:21:26.626Z,12.87
2017-04-03T17:22:48.756Z,12.85
2017-04-03T17:24:10.624Z,12.9
2017-04-03T17:25:32.519Z,12.75
2017-04-03T17:26:54.867Z,12.7
2017-04-03T17:28:17.447Z,12.53
2017-04-03T17:29:39.921Z,12.53
2017-04-03T17:31:01.794Z,12.35
2017-04-03T17:32:23.972Z,12.38
2017-04-03T17:33:46.940Z,12.32
2017-04-03T17:35:08.822Z,12.32
2017-04-03T17:36:31.007Z,12.29
2017-04-03T17:37:53.507Z,12.31
2017-04-03T17:39:16.310Z,12.31
2017-04-03T17:40:38.485Z,12.23
2017-04-03T17:42:00.385Z,12.16
2017-04-03T17:43:22.921Z,12.14
2017-04-03T17:44:45.474Z,12.13
2017-04-03T17:46:07.935Z,12.01
2017-04-03T17:47:29.465Z,12.01
2017-04-03T17:48:51.005Z,11.98
2017-04-03T17:50:13.477Z,12.01
2017-04-03T17:51:35.960Z,11.9
2017-04-03T17:52:58.103Z,11.79